Overview Statistics Trail Chart Weather Telemetry Raw packets
 

This is the latest recevied weather packets stored in our database for station/object KC0RPY. If no packets are shown the sender has not sent any weather packets the latest 10 day(s).

<< 2 3 4 5 6 7 8 >>
Time Temp. Humidity Pressure Rain* Wind** Luminosity Snow
1788631722 36.11° C 45% 1015.7 hPa 0 mm - 760 W/m² -
1788631448 36.67° C 43% 1015.7 hPa 0 mm - 769 W/m² -
1788631112 36.11° C 43% 1016 hPa 0 mm - 783 W/m² -
1788630806 35.56° C 46% 1016 hPa 0 mm - 769 W/m² -
1788630502 36.11° C 44% 1016 hPa 0 mm - 783 W/m² -
1788630197 36.11° C 45% 1016.3 hPa 0 mm - 789 W/m² -
1788629893 36.11° C 45% 1016.3 hPa 0 mm - 792 W/m² -
1788629589 35.56° C 46% 1016.3 hPa 0 mm - 784 W/m² -
1788629289 35.56° C 47% 1016 hPa 0 mm - 757 W/m² -
1788628987 35.56° C 47% 1016.3 hPa 0 mm - 791 W/m² -
1788628683 35.56° C 47% 1016.3 hPa 0 mm - 800 W/m² -
1788628380 35° C 48% 1016.3 hPa 0 mm - 799 W/m² -
1788628076 35.56° C 49% 1016.7 hPa 0 mm - 789 W/m² -
1788627802 35.56° C 48% 1016.3 hPa 0 mm - 776 W/m² -
1788627469 35.56° C 49% 1016.3 hPa 0 mm - 690 W/m² -
1788627166 36.11° C 48% 1016.7 hPa 0 mm - 802 W/m² -
1788626860 35.56° C 50% 1016.3 hPa 0 mm - 832 W/m² -
1788626555 35.56° C 50% 1016.7 hPa 0 mm - 831 W/m² -
1788626251 34.44° C 51% 1016.7 hPa 0 mm - 804 W/m² -
1788625972 34.44° C 52% 1016.7 hPa 0 mm - 788 W/m² -
1788625643 34.44° C 52% 1016.3 hPa 0 mm - 634 W/m² -
1788625342 34.44° C 53% 1016.7 hPa 0 mm - 765 W/m² -
1788625037 33.33° C 54% 1016.3 hPa 0 mm - 742 W/m² -
1788624735 33.89° C 54% 1016.7 hPa 0 mm - 709 W/m² -
1788624433 33.89° C 53% 1016.3 hPa 0 mm - 663 W/m² -

* Rain latest hour (hover to see other rain measurements)
** Current wind speed in m/s (hover to see current wind gust speed)